Terminal Aerodrome Forecast
Issued by NWS

Home | Current Version | Previous Version | Graphics & Text | Print | Product List | Glossary On
Versions: 1 2 3 4 5 6 7 8 9 10 11 12 13 14 15
006
FTUS43 KGRB 291135
TAFMTW
TAF
KMTW 291135Z 2912/3012 01004KT P6SM VCSH SCT025 OVC045
      TEMPO 2912/2915 BKN025
     FM291900 05009KT P6SM SCT030 BKN050
     FM292300 07005KT P6SM SCT050
     FM300800 03007KT P6SM SCT070=

USA.gov is the U.S. government's official web portal to all federal, state and local government web resources and services.